Accueil
METAR-TAF:

METAR-TAF

Aéroports :

Aérodrome de Fort-Dauphin

Fort-Dauphin, Madagascar

latitude: 25-02S, longitude: 046-57E, altitude: 8 m

Observation

Le bulletin a été fait il y a 1 heure et 6 minutes, à 12:00 UTC
Vent 16 kt de ouest/sud-ouest
Température 25°C
Humidité 69%
Pression 1014 hPa
Visibilité 10 km ou plus
Quelques nuages à une hauteur de 2000 ft
Nuages épars à une hauteur de 3300 ft

METAR: FMSD 061200Z 24016KT 9999 FEW020 SCT033 25/19 Q1014

Heure: 16:06 (13:06 UTC)

Prévision

Le bulletin a été fait il y a 2 heures et 6 minutes, à 11:00 UTC
Prévision valable du 06 à 12 UTC au 07 à 12 UTC
Vent 12 kt de ouest
Visibilité 10 km ou plus
Nuages épars à une hauteur de 1600 ft
Nuages épars à une hauteur de 3300 ft
Probabilité 30% :
Temporairement
du 07 à 02 UTC au 07 à 08 UTC
Visibilité: 4500 m
averses de pluie

TAF: FMSD 061100Z 0612/0712 26012KT 9999 SCT016 SCT033 PROB30 TEMPO 0702/0708 4500 SHRA

Observations et prévisions météorologiques de plus de 4000 aéroports (messages METAR et TAF).

Les stations disponibles sont représentées par des disques jaunes et rouges sur la carte.

Passer la souris dessus pour voir le nom de la station.

Cliquer dessus pour voir les observations et prévisions météorologiques.

Pour changer de carte: cliquez sur les boutons verts avec une croix noire pour zoomer, sur le bouton vert avec un tiret pour effectuer un zoom arrière, ou sur les flèches vertes pour les cartes adjacentes.


METAR-TAF: